21:44
Airports
Links
Donate
Help keep this website running!
PayPal
Bitcoin
METAR
LIBR 162115Z 32014KT CAVOK 26/24 Q1015 NOSIG
Current Weather Conditions at LIBR
VFR 21:15:00 16-08-17
Altimeter:29.97 hg
Temp:26.0°c 79°f
Dew point:24.0°c 75°f
Wind:14 knots, 16.1 mph, 7 m/s, from 320°
Visibility:6.21 statute miles
(CAVOK)
No significant weather changes expected within 2 hours.
Past METAR reports
VFR 20:45:00 16-08-17
Altimeter:29.97 hg
Temp:26.0°c 79°f
Dew point:24.0°c 75°f
Wind:11 knots, 12.7 mph, 6 m/s, from 330°
Visibility:6.21 statute miles
(CAVOK)
No significant weather changes expected within 2 hours.
LIBR 162045Z 33011KT CAVOK 26/24 Q1015 NOSIG RMK SKC VIS MIN 9999 WIND THR13 /////KT WIND THR31 33010KT BLU
VFR 20:15:00 16-08-17
Altimeter:29.97 hg
Temp:25.0°c 77°f
Dew point:24.0°c 75°f
Wind:14 knots, 16.1 mph, 7 m/s, from 320°
Visibility:6.21 statute miles
(CAVOK)
No significant weather changes expected within 2 hours.
LIBR 162015Z 32014KT CAVOK 25/24 Q1015 NOSIG
VFR 19:45:00 16-08-17
Altimeter:29.97 hg
Temp:25.0°c 77°f
Dew point:24.0°c 75°f
Wind:13 knots, 15 mph, 7 m/s, from 330°
Visibility:6.21 statute miles
(CAVOK)
No significant weather changes expected within 2 hours.
LIBR 161945Z 33013KT CAVOK 25/24 Q1015 NOSIG RMK SKC VIS MIN 9999 WIND THR13 /////KT WIND THR31 33011KT BLU
VFR 19:15:00 16-08-17
Altimeter:29.97 hg
Temp:25.0°c 77°f
Dew point:24.0°c 75°f
Wind:14 knots, 16.1 mph, 7 m/s, from 320°
Visibility:6.21 statute miles
(CAVOK)
No significant weather changes expected within 2 hours.
LIBR 161915Z 32014KT CAVOK 25/24 Q1015 NOSIG
VFR 18:45:00 16-08-17
Altimeter:29.97 hg
Temp:25.0°c 77°f
Dew point:23.0°c 73°f
Wind:14 knots, 16.1 mph, 7 m/s, from 320°
Visibility:6.21 statute miles
(CAVOK)
No significant weather changes expected within 2 hours.
LIBR 161845Z 32014KT CAVOK 25/23 Q1015 NOSIG RMK SKC VIS MIN 9999 WIND THR13 /////KT WIND THR31 33011KT BLU
VFR 18:15:00 16-08-17
Altimeter:29.94 hg
Temp:26.0°c 79°f
Dew point:24.0°c 75°f
Wind:13 knots, 15 mph, 7 m/s, from 330°
Visibility:6.21 statute miles
(CAVOK)
No significant weather changes expected within 2 hours.
LIBR 161815Z 33013KT CAVOK 26/24 Q1014 NOSIG
TAF
TAF LIBR 161700Z 1618/1718 33015G25KT CAVOK TEMPO 1622/1706 33020G32KT BECMG 1716/1717 32012KT
Forecast at LIBR
18:00 16-08-17 to 16:00 17-08-17
NSW
Wind:15 Knots from 330°
Visibility:6.21 statute miles
NSC
TEMPO 22:00 16-08-17 to 06:00 17-08-17
Wind:20 Knots from 330°
BECMG 16:00 17-08-17 to 18:00 17-08-17
NSW
Wind:12 Knots from 320°
Visibility:6.21 statute miles
NSC